createdAt,value
2023-05-29T00:01:42.487Z,11.65
2023-05-29T00:04:09.540Z,11.65
2023-05-29T00:06:37.422Z,11.51
2023-05-29T00:09:05.172Z,11.26
2023-05-29T00:11:31.918Z,11.29
2023-05-29T00:13:58.619Z,11.03
2023-05-29T00:16:25.322Z,10.92
2023-05-29T00:18:54.875Z,10.91
2023-05-29T00:21:21.690Z,10.95
2023-05-29T00:23:48.898Z,10.88
2023-05-29T00:26:17.887Z,10.95
2023-05-29T00:28:47.973Z,10.73
2023-05-29T00:31:14.856Z,10.71
2023-05-29T00:33:41.487Z,10.57
2023-05-29T00:36:09.268Z,10.73
2023-05-29T00:38:35.945Z,10.35
2023-05-29T00:41:03.736Z,9.88
2023-05-29T00:43:30.432Z,10.46
2023-05-29T00:45:57.120Z,10.24
2023-05-29T00:48:24.345Z,10.32
2023-05-29T00:50:52.021Z,10.24
2023-05-29T00:53:19.390Z,9.52
2023-05-29T00:55:46.267Z,10.03
2023-05-29T00:58:12.890Z,9.90
2023-05-29T01:00:39.999Z,9.87
2023-05-29T01:03:07.626Z,9.71
2023-05-29T01:05:36.996Z,9.49
2023-05-29T01:08:04.363Z,9.67
2023-05-29T01:10:32.335Z,9.68
2023-05-29T01:13:24.536Z,9.69
2023-05-29T01:16:12.057Z,9.74
2023-05-29T01:18:52.649Z,9.47
2023-05-29T01:21:56.860Z,9.60
2023-05-29T01:24:55.241Z,9.52
2023-05-29T01:27:26.471Z,8.72
2023-05-29T01:29:54.746Z,9.69
2023-05-29T01:32:22.272Z,9.36
2023-05-29T01:34:48.965Z,9.31
2023-05-29T01:37:15.593Z,8.99
2023-05-29T01:39:42.442Z,8.82
2023-05-29T01:42:09.780Z,8.98
2023-05-29T01:44:38.966Z,9.10
2023-05-29T01:47:07.083Z,9.12
2023-05-29T01:49:37.484Z,8.86
2023-05-29T01:52:04.512Z,8.59
2023-05-29T01:54:31.260Z,9.02
2023-05-29T01:56:58.526Z,9.08
2023-05-29T01:59:28.853Z,8.23
2023-05-29T02:01:55.735Z,8.98
2023-05-29T02:04:22.819Z,9.01
2023-05-29T02:06:49.485Z,8.72
2023-05-29T02:09:18.170Z,9.18
2023-05-29T02:11:46.739Z,8.96
2023-05-29T02:14:13.878Z,9.01
2023-05-29T02:16:42.211Z,8.62
2023-05-29T02:19:09.320Z,8.59
2023-05-29T02:21:39.417Z,8.61
2023-05-29T02:24:07.642Z,8.63
2023-05-29T02:26:35.033Z,8.81
2023-05-29T02:29:01.598Z,8.46
2023-05-29T02:31:28.411Z,8.74
2023-05-29T02:33:55.081Z,9.12
2023-05-29T02:36:22.982Z,8.88
2023-05-29T02:38:52.520Z,8.71
2023-05-29T02:41:19.169Z,8.74
2023-05-29T02:43:45.767Z,8.69
2023-05-29T02:46:12.493Z,8.42
2023-05-29T02:48:39.247Z,8.83
2023-05-29T02:51:06.101Z,9.01
2023-05-29T02:53:32.758Z,8.75
2023-05-29T02:55:59.564Z,8.25
2023-05-29T02:58:26.175Z,8.40
2023-05-29T03:00:53.656Z,8.49
2023-05-29T03:03:20.385Z,8.23
2023-05-29T03:05:47.900Z,8.46
2023-05-29T03:08:14.954Z,8.64
2023-05-29T03:10:44.852Z,8.49
2023-05-29T03:13:11.644Z,8.02
2023-05-29T03:15:49.736Z,8.23
2023-05-29T03:18:17.535Z,8.15
2023-05-29T03:20:44.208Z,8.61
2023-05-29T03:23:11.422Z,8.30
2023-05-29T03:25:38.078Z,8.59
2023-05-29T03:28:04.689Z,8.54
2023-05-29T03:30:32.161Z,8.97
2023-05-29T03:33:04.323Z,8.63
2023-05-29T03:35:49.576Z,8.17
2023-05-29T03:38:16.221Z,8.75
2023-05-29T03:40:42.972Z,7.93
2023-05-29T03:43:09.763Z,8.65
2023-05-29T03:45:36.355Z,8.80
2023-05-29T03:48:03.180Z,8.82
2023-05-29T03:50:30.617Z,9.18
2023-05-29T03:52:57.276Z,8.65
2023-05-29T03:55:24.078Z,9.15
2023-05-29T03:57:50.870Z,8.73
2023-05-29T04:00:17.772Z,9.17
2023-05-29T04:02:49.510Z,9.43
2023-05-29T04:05:16.403Z,9.49
2023-05-29T04:07:43.037Z,9.40
2023-05-29T04:10:10.269Z,9.64
2023-05-29T04:12:36.811Z,10.18
2023-05-29T04:15:04.162Z,9.80
2023-05-29T04:17:30.997Z,10.06
2023-05-29T04:19:58.341Z,10.24
2023-05-29T04:22:25.359Z,9.87
2023-05-29T04:24:52.002Z,10.39
2023-05-29T04:27:19.049Z,10.60
2023-05-29T04:29:45.591Z,10.96
2023-05-29T04:32:14.255Z,10.99
2023-05-29T04:34:41.076Z,11.05
2023-05-29T04:37:08.480Z,10.91
2023-05-29T04:39:35.176Z,10.73
2023-05-29T04:42:02.007Z,11.20
2023-05-29T04:44:30.204Z,11.65
2023-05-29T04:46:59.719Z,11.89
2023-05-29T04:49:26.368Z,12.02
2023-05-29T04:51:54.623Z,12.87
2023-05-29T04:54:23.445Z,13.00
2023-05-29T04:56:53.396Z,13.87
2023-05-29T04:59:24.102Z,14.05
2023-05-29T05:01:51.290Z,14.02
2023-05-29T05:04:18.950Z,13.86
2023-05-29T05:06:45.971Z,14.49
2023-05-29T05:09:15.023Z,14.51
2023-05-29T05:11:42.518Z,14.14
2023-05-29T05:14:09.075Z,13.70
2023-05-29T05:16:36.452Z,12.66
2023-05-29T05:19:04.016Z,11.71
2023-05-29T05:21:33.988Z,11.74
2023-05-29T05:24:02.913Z,11.57
2023-05-29T05:26:31.428Z,11.59
2023-05-29T05:28:58.221Z,11.66
2023-05-29T05:31:28.121Z,10.50
2023-05-29T05:33:54.820Z,11.13
2023-05-29T05:36:22.354Z,10.81
2023-05-29T05:38:54.961Z,11.44
2023-05-29T05:41:22.634Z,11.02
2023-05-29T05:43:50.859Z,11.75
2023-05-29T05:46:26.624Z,11.65
2023-05-29T05:48:58.134Z,11.54
2023-05-29T05:51:25.752Z,10.56
2023-05-29T05:53:52.652Z,10.32
2023-05-29T05:56:20.005Z,11.60
2023-05-29T05:58:46.873Z,11.57
2023-05-29T06:01:14.026Z,11.18
2023-05-29T06:03:41.281Z,10.35
2023-05-29T06:06:11.194Z,10.65
2023-05-29T06:08:42.588Z,10.37
2023-05-29T06:11:09.623Z,10.88
2023-05-29T06:13:38.343Z,11.00
2023-05-29T06:16:09.410Z,9.79
2023-05-29T06:18:36.747Z,10.95
2023-05-29T06:21:03.966Z,11.12
2023-05-29T06:23:31.166Z,11.48
2023-05-29T06:25:57.831Z,11.62
2023-05-29T06:28:25.135Z,10.96
2023-05-29T06:30:52.102Z,11.22
2023-05-29T06:33:19.000Z,11.67
2023-05-29T06:35:46.804Z,11.35
2023-05-29T06:38:13.446Z,11.51
2023-05-29T06:40:40.300Z,11.43
2023-05-29T06:43:07.132Z,11.14
2023-05-29T06:45:47.887Z,11.46
2023-05-29T06:48:14.554Z,11.67
2023-05-29T06:50:42.527Z,11.73
2023-05-29T06:53:29.468Z,11.26
2023-05-29T06:55:57.121Z,11.23
2023-05-29T06:58:23.929Z,11.11
2023-05-29T07:00:51.060Z,11.58
2023-05-29T07:03:47.906Z,12.07
2023-05-29T07:06:14.732Z,12.30
2023-05-29T07:08:41.677Z,12.18
2023-05-29T07:11:08.287Z,12.21
2023-05-29T07:13:35.107Z,12.05
2023-05-29T07:16:10.378Z,11.94
2023-05-29T07:18:48.976Z,11.70
2023-05-29T07:21:18.353Z,11.81
2023-05-29T07:23:45.026Z,11.92
2023-05-29T07:26:14.168Z,12.35
2023-05-29T07:28:41.034Z,12.24
2023-05-29T07:31:08.922Z,12.33
2023-05-29T07:33:35.994Z,12.68
2023-05-29T07:36:03.015Z,12.82
2023-05-29T07:38:29.934Z,13.38
2023-05-29T07:40:58.860Z,13.68
2023-05-29T07:43:37.228Z,13.36
2023-05-29T07:46:07.238Z,13.79
2023-05-29T07:48:35.631Z,13.48
2023-05-29T07:51:03.697Z,13.51
2023-05-29T07:53:34.865Z,13.37
2023-05-29T07:56:02.021Z,13.40
2023-05-29T07:58:29.578Z,13.13
2023-05-29T08:00:56.625Z,13.31
2023-05-29T08:03:23.651Z,13.11
2023-05-29T08:06:06.708Z,13.27
2023-05-29T08:08:34.898Z,13.31
2023-05-29T08:11:01.844Z,13.35
2023-05-29T08:13:31.914Z,12.80
2023-05-29T08:15:59.600Z,13.14
2023-05-29T08:18:27.354Z,13.24
2023-05-29T08:20:54.281Z,13.32
2023-05-29T08:23:21.818Z,13.32
2023-05-29T08:25:48.958Z,13.67
2023-05-29T08:28:15.953Z,13.75
2023-05-29T08:30:42.877Z,13.90
2023-05-29T08:33:09.914Z,13.78
2023-05-29T08:35:37.525Z,13.82
2023-05-29T08:38:04.137Z,14.08
2023-05-29T08:40:31.258Z,13.80
2023-05-29T08:42:59.440Z,14.11
2023-05-29T08:45:26.350Z,14.27
2023-05-29T08:47:55.215Z,14.47
2023-05-29T08:50:22.354Z,14.39
2023-05-29T08:52:49.105Z,14.36
2023-05-29T08:55:15.978Z,14.02
2023-05-29T08:57:44.368Z,14.08
2023-05-29T09:00:16.472Z,14.36
2023-05-29T09:02:47.161Z,14.33
2023-05-29T09:05:14.367Z,14.28
2023-05-29T09:07:42.156Z,14.64
2023-05-29T09:10:12.805Z,14.71
2023-05-29T09:12:40.799Z,14.50
2023-05-29T09:15:21.802Z,14.39
2023-05-29T09:17:53.392Z,14.26
2023-05-29T09:20:24.778Z,14.46
2023-05-29T09:22:55.277Z,14.62
2023-05-29T09:25:24.917Z,14.86
2023-05-29T09:27:54.149Z,14.95
2023-05-29T09:30:36.253Z,14.94
2023-05-29T09:33:04.278Z,14.91
2023-05-29T09:35:44.790Z,15.08
2023-05-29T09:38:24.780Z,15.03
2023-05-29T09:41:06.997Z,15.21
2023-05-29T09:43:34.938Z,13.86
2023-05-29T09:46:02.804Z,14.67
2023-05-29T09:48:31.430Z,14.92
2023-05-29T09:50:59.436Z,15.04
2023-05-29T09:53:27.410Z,14.78
2023-05-29T09:55:55.822Z,15.29
2023-05-29T09:58:23.823Z,15.41
2023-05-29T10:00:52.790Z,14.84
2023-05-29T10:03:22.467Z,15.27
2023-05-29T10:05:58.028Z,15.42
2023-05-29T10:08:26.988Z,15.41
2023-05-29T10:11:00.320Z,15.32
2023-05-29T10:13:30.333Z,14.84
2023-05-29T10:15:59.191Z,15.25
2023-05-29T10:18:33.363Z,15.13
2023-05-29T10:21:02.739Z,15.69
2023-05-29T10:23:31.602Z,15.78
2023-05-29T10:26:06.399Z,15.77
2023-05-29T10:28:34.615Z,15.56
2023-05-29T10:31:11.843Z,15.71
2023-05-29T10:33:46.077Z,16.04
2023-05-29T10:36:19.953Z,15.80
2023-05-29T10:38:47.893Z,15.78
2023-05-29T10:41:29.999Z,15.61
2023-05-29T10:44:01.127Z,15.70
2023-05-29T10:47:00.364Z,15.70
2023-05-29T10:49:27.600Z,15.70
2023-05-29T10:51:54.115Z,15.84
2023-05-29T10:54:25.246Z,15.86
2023-05-29T10:57:02.153Z,15.75
2023-05-29T10:59:29.529Z,15.77
2023-05-29T11:01:58.545Z,15.85
2023-05-29T11:04:29.095Z,16.00
2023-05-29T11:06:56.188Z,15.84
2023-05-29T11:09:40.317Z,15.80
2023-05-29T11:12:11.761Z,15.88
2023-05-29T11:14:48.879Z,15.82
2023-05-29T11:17:44.777Z,16.25
2023-05-29T11:20:38.700Z,16.00
2023-05-29T11:23:13.664Z,16.24
2023-05-29T11:25:40.284Z,16.19
2023-05-29T11:28:11.658Z,16.33
2023-05-29T11:30:45.843Z,16.40
2023-05-29T11:33:29.708Z,16.47
2023-05-29T11:36:01.837Z,16.62
2023-05-29T11:38:29.640Z,16.49
2023-05-29T11:40:57.032Z,16.59
2023-05-29T11:43:24.056Z,16.50
2023-05-29T11:45:50.713Z,16.81
2023-05-29T11:48:17.590Z,16.95
2023-05-29T11:50:47.266Z,16.72
2023-05-29T11:53:13.912Z,17.27
2023-05-29T11:55:40.913Z,17.71
2023-05-29T11:58:07.652Z,17.46
2023-05-29T12:00:36.945Z,17.44
2023-05-29T12:03:05.309Z,17.03
2023-05-29T12:05:54.477Z,17.16
2023-05-29T12:08:26.351Z,17.17
2023-05-29T12:10:54.093Z,17.44
2023-05-29T12:13:21.380Z,17.57
2023-05-29T12:15:50.329Z,17.14
2023-05-29T12:18:17.214Z,17.21
2023-05-29T12:20:43.852Z,17.06
2023-05-29T12:23:13.244Z,17.18
2023-05-29T12:25:40.324Z,17.67
2023-05-29T12:28:07.195Z,17.20
2023-05-29T12:30:39.301Z,17.34
2023-05-29T12:33:07.637Z,16.94
2023-05-29T12:35:34.511Z,17.04
2023-05-29T12:38:02.231Z,17.34
2023-05-29T12:40:37.752Z,17.75
2023-05-29T12:43:06.974Z,18.03
2023-05-29T12:45:35.091Z,17.83
2023-05-29T12:48:04.593Z,17.95
2023-05-29T12:50:33.303Z,17.79
2023-05-29T12:53:05.413Z,17.86
2023-05-29T12:55:39.742Z,18.21
2023-05-29T12:58:11.353Z,18.30
2023-05-29T13:00:44.538Z,18.16
2023-05-29T13:03:12.465Z,17.91
2023-05-29T13:05:39.894Z,17.87
2023-05-29T13:08:08.853Z,18.18
2023-05-29T13:10:36.021Z,18.00
2023-05-29T13:13:02.820Z,18.09
2023-05-29T13:15:29.742Z,18.02
2023-05-29T13:17:56.660Z,17.86
2023-05-29T13:20:23.345Z,18.19
2023-05-29T13:22:50.159Z,18.28
2023-05-29T13:25:18.400Z,18.23
2023-05-29T13:27:46.863Z,17.87
2023-05-29T13:30:14.960Z,18.02
2023-05-29T13:32:42.915Z,18.18
2023-05-29T13:35:09.678Z,18.12
2023-05-29T13:37:40.167Z,18.42
2023-05-29T13:40:10.311Z,18.58
2023-05-29T13:42:39.449Z,18.79
2023-05-29T13:45:08.350Z,18.72
2023-05-29T13:47:36.109Z,18.72
2023-05-29T13:50:03.678Z,18.65
2023-05-29T13:52:30.432Z,18.85
2023-05-29T13:54:59.071Z,18.79
2023-05-29T13:57:25.765Z,18.76
2023-05-29T13:59:52.345Z,18.44
2023-05-29T14:02:19.228Z,18.68
2023-05-29T14:04:45.808Z,18.50
2023-05-29T14:07:12.423Z,18.56
2023-05-29T14:09:39.157Z,18.29
2023-05-29T14:12:06.798Z,18.88
2023-05-29T14:14:34.825Z,19.02
2023-05-29T14:17:01.822Z,18.91
2023-05-29T14:19:28.308Z,18.64
2023-05-29T14:21:54.872Z,18.96
2023-05-29T14:24:21.483Z,18.98
2023-05-29T14:26:48.535Z,18.87
2023-05-29T14:29:16.049Z,18.68
2023-05-29T14:31:44.816Z,18.96
2023-05-29T14:34:12.721Z,18.63
2023-05-29T14:36:39.515Z,19.00
2023-05-29T14:39:06.908Z,19.18
2023-05-29T14:41:35.974Z,19.09
2023-05-29T14:44:02.611Z,19.10
2023-05-29T14:46:32.614Z,19.03
2023-05-29T14:49:02.692Z,18.87
2023-05-29T14:51:29.575Z,18.93
2023-05-29T14:53:56.410Z,19.18
2023-05-29T14:56:23.146Z,19.03
2023-05-29T14:58:49.996Z,19.39
2023-05-29T15:01:18.345Z,19.39
2023-05-29T15:03:46.500Z,19.24
2023-05-29T15:06:13.690Z,18.44
2023-05-29T15:08:41.168Z,18.91
2023-05-29T15:11:08.758Z,19.07
2023-05-29T15:13:35.355Z,18.89
2023-05-29T15:16:04.159Z,18.87
2023-05-29T15:18:31.603Z,19.03
2023-05-29T15:20:58.890Z,19.10
2023-05-29T15:23:28.685Z,19.05
2023-05-29T15:25:55.873Z,19.04
2023-05-29T15:28:22.848Z,19.34
2023-05-29T15:30:49.876Z,19.50
2023-05-29T15:33:16.634Z,19.18
2023-05-29T15:35:43.786Z,19.01
2023-05-29T15:38:13.628Z,18.61
2023-05-29T15:40:44.079Z,18.91
2023-05-29T15:43:10.921Z,18.88
2023-05-29T15:45:38.296Z,18.65
2023-05-29T15:48:05.706Z,19.07
2023-05-29T15:50:32.777Z,18.99
2023-05-29T15:52:59.312Z,19.09
2023-05-29T15:55:26.063Z,19.17
2023-05-29T15:57:52.834Z,18.55
2023-05-29T16:00:19.735Z,18.71
2023-05-29T16:02:46.357Z,18.70
2023-05-29T16:05:13.353Z,18.70
2023-05-29T16:07:40.580Z,18.76
2023-05-29T16:10:07.640Z,18.90
2023-05-29T16:12:34.524Z,18.96
2023-05-29T16:15:01.700Z,18.89
2023-05-29T16:17:28.908Z,18.78
2023-05-29T16:19:57.112Z,18.94
2023-05-29T16:22:39.950Z,18.91
2023-05-29T16:25:09.559Z,18.79
2023-05-29T16:27:36.844Z,18.95
2023-05-29T16:30:03.673Z,19.45
2023-05-29T16:32:31.075Z,20.73
2023-05-29T16:35:01.086Z,22.16
2023-05-29T16:37:28.227Z,22.47
2023-05-29T16:39:54.966Z,22.06
2023-05-29T16:42:24.008Z,20.17
2023-05-29T16:44:53.114Z,19.49
2023-05-29T16:47:20.638Z,19.62
2023-05-29T16:49:47.407Z,19.88
2023-05-29T16:52:20.343Z,19.74
2023-05-29T16:54:48.606Z,19.49
2023-05-29T16:57:15.815Z,19.78
2023-05-29T16:59:42.341Z,19.98
2023-05-29T17:02:08.989Z,20.00
2023-05-29T17:04:37.002Z,19.69
2023-05-29T17:07:04.746Z,19.66
2023-05-29T17:09:31.917Z,19.17
2023-05-29T17:11:58.926Z,19.41
2023-05-29T17:14:25.835Z,19.50
2023-05-29T17:16:52.511Z,19.26
2023-05-29T17:19:19.575Z,19.26
2023-05-29T17:21:48.035Z,19.17
2023-05-29T17:24:17.695Z,19.45
2023-05-29T17:26:44.494Z,19.28
2023-05-29T17:29:12.322Z,19.03
2023-05-29T17:31:39.999Z,18.95
2023-05-29T17:34:06.658Z,18.65
2023-05-29T17:36:33.761Z,18.65
2023-05-29T17:39:00.590Z,18.65
2023-05-29T17:41:27.983Z,18.30
2023-05-29T17:43:55.115Z,18.02
2023-05-29T17:46:22.643Z,18.14
2023-05-29T17:48:49.520Z,17.99
2023-05-29T17:51:17.171Z,18.22
2023-05-29T17:53:44.500Z,18.19
2023-05-29T17:56:12.180Z,17.61
2023-05-29T17:58:39.025Z,17.53
2023-05-29T18:01:05.719Z,17.76
2023-05-29T18:03:32.426Z,17.84
2023-05-29T18:05:59.152Z,17.74
2023-05-29T18:08:28.104Z,17.64
2023-05-29T18:10:54.745Z,17.49
2023-05-29T18:13:21.377Z,17.36
2023-05-29T18:15:48.268Z,17.27
2023-05-29T18:18:15.244Z,17.31
2023-05-29T18:20:42.074Z,17.14
2023-05-29T18:23:08.972Z,16.85
2023-05-29T18:25:36.313Z,16.76
2023-05-29T18:28:04.437Z,16.61
2023-05-29T18:30:31.703Z,16.55
2023-05-29T18:33:01.845Z,16.54
2023-05-29T18:35:28.858Z,16.50
2023-05-29T18:37:55.456Z,16.39
2023-05-29T18:40:22.071Z,16.11
2023-05-29T18:42:48.731Z,16.17
2023-05-29T18:45:15.487Z,16.02
2023-05-29T18:47:44.531Z,16.04
2023-05-29T18:50:13.116Z,15.89
2023-05-29T18:52:40.890Z,15.79
2023-05-29T18:55:08.062Z,15.66
2023-05-29T18:57:34.525Z,15.96
2023-05-29T19:00:01.115Z,15.67
2023-05-29T19:02:28.052Z,15.26
2023-05-29T19:04:54.962Z,15.33
2023-05-29T19:07:21.544Z,15.27
2023-05-29T19:09:48.706Z,15.32
2023-05-29T19:12:15.212Z,15.30
2023-05-29T19:14:41.846Z,14.93
2023-05-29T19:17:10.706Z,15.13
2023-05-29T19:19:37.420Z,15.10
2023-05-29T19:22:04.894Z,14.73
2023-05-29T19:24:31.616Z,14.81
2023-05-29T19:26:58.316Z,14.45
2023-05-29T19:29:25.041Z,14.44
2023-05-29T19:31:51.711Z,14.16
2023-05-29T19:34:18.630Z,13.73
2023-05-29T19:36:45.523Z,14.22
2023-05-29T19:39:12.533Z,13.99
2023-05-29T19:41:41.681Z,14.06
2023-05-29T19:44:09.215Z,13.73
2023-05-29T19:46:39.875Z,13.89
2023-05-29T19:49:06.793Z,14.00
2023-05-29T19:51:34.217Z,13.37
2023-05-29T19:54:01.283Z,13.24
2023-05-29T19:56:28.463Z,13.59
2023-05-29T19:58:55.298Z,13.75
2023-05-29T20:01:22.314Z,13.57
2023-05-29T20:03:49.200Z,13.41
2023-05-29T20:06:16.065Z,13.12
2023-05-29T20:08:42.678Z,13.24
2023-05-29T20:11:09.334Z,13.43
2023-05-29T20:13:35.953Z,13.04
2023-05-29T20:16:02.732Z,12.72
2023-05-29T20:18:29.363Z,12.56
2023-05-29T20:20:56.211Z,12.76
2023-05-29T20:23:23.555Z,12.60
2023-05-29T20:25:51.166Z,13.01
2023-05-29T20:28:18.012Z,12.39
2023-05-29T20:30:44.686Z,12.81
2023-05-29T20:33:14.114Z,12.68
2023-05-29T20:35:42.614Z,12.45
2023-05-29T20:38:09.222Z,12.71
2023-05-29T20:40:37.228Z,12.32
2023-05-29T20:43:07.076Z,12.22
2023-05-29T20:45:34.285Z,12.51
2023-05-29T20:48:00.784Z,12.51
2023-05-29T20:50:27.621Z,12.37
2023-05-29T20:52:54.189Z,12.39
2023-05-29T20:55:21.036Z,12.23
2023-05-29T20:57:47.679Z,12.35
2023-05-29T21:00:14.584Z,11.93
2023-05-29T21:02:41.390Z,11.96
2023-05-29T21:05:09.402Z,11.85
2023-05-29T21:07:36.969Z,11.84
2023-05-29T21:10:08.071Z,12.13
2023-05-29T21:12:35.987Z,12.14
2023-05-29T21:15:03.674Z,11.93
2023-05-29T21:17:32.872Z,12.12
2023-05-29T21:20:02.592Z,11.89
2023-05-29T21:22:30.549Z,11.80
2023-05-29T21:25:00.527Z,11.76
2023-05-29T21:27:28.229Z,11.79
2023-05-29T21:29:58.585Z,11.51
2023-05-29T21:32:27.426Z,11.89
2023-05-29T21:34:54.987Z,11.86
2023-05-29T21:37:23.795Z,11.58
2023-05-29T21:39:51.334Z,11.48
2023-05-29T21:42:18.552Z,11.25
2023-05-29T21:44:45.315Z,11.53
2023-05-29T21:47:12.387Z,10.93
2023-05-29T21:49:39.328Z,11.18
2023-05-29T21:52:06.328Z,11.47
2023-05-29T21:54:33.125Z,11.35
2023-05-29T21:56:59.841Z,11.28
2023-05-29T21:59:26.412Z,11.05
2023-05-29T22:01:53.255Z,10.84
2023-05-29T22:04:22.834Z,10.89
2023-05-29T22:06:49.618Z,11.18
2023-05-29T22:09:16.598Z,11.11
2023-05-29T22:11:44.400Z,11.45
2023-05-29T22:14:11.212Z,10.88
2023-05-29T22:16:37.988Z,10.66
2023-05-29T22:19:06.621Z,10.70
2023-05-29T22:21:36.913Z,10.90
2023-05-29T22:24:04.449Z,11.10
2023-05-29T22:26:32.166Z,10.95
2023-05-29T22:28:58.888Z,11.04
2023-05-29T22:31:25.844Z,10.83
2023-05-29T22:33:52.529Z,10.53
2023-05-29T22:36:21.835Z,10.48
2023-05-29T22:38:48.808Z,10.89
2023-05-29T22:41:15.487Z,10.61
2023-05-29T22:43:42.876Z,10.97
2023-05-29T22:46:09.833Z,10.91
2023-05-29T22:48:37.621Z,10.99
2023-05-29T22:51:05.539Z,10.52
2023-05-29T22:53:34.030Z,10.36
2023-05-29T22:56:01.511Z,10.88
2023-05-29T22:58:28.146Z,10.63
2023-05-29T23:00:54.928Z,10.81
2023-05-29T23:03:22.031Z,10.25
2023-05-29T23:05:49.948Z,10.46
2023-05-29T23:08:16.766Z,10.33
2023-05-29T23:10:43.648Z,10.09
2023-05-29T23:13:11.864Z,10.00
2023-05-29T23:15:38.856Z,10.40
2023-05-29T23:18:05.789Z,10.47
2023-05-29T23:20:32.443Z,10.26
2023-05-29T23:22:59.075Z,10.20
2023-05-29T23:25:25.656Z,10.15
2023-05-29T23:27:52.316Z,10.39
2023-05-29T23:30:18.958Z,10.06
2023-05-29T23:32:45.755Z,9.84
2023-05-29T23:35:12.823Z,9.95
2023-05-29T23:37:39.562Z,9.87
2023-05-29T23:40:06.898Z,10.25
2023-05-29T23:42:34.902Z,10.26
2023-05-29T23:45:01.999Z,9.97
2023-05-29T23:47:28.589Z,10.03
2023-05-29T23:49:55.128Z,9.98
2023-05-29T23:52:22.706Z,9.52
2023-05-29T23:54:49.391Z,9.60
2023-05-29T23:57:16.064Z,9.78
2023-05-29T23:59:42.676Z,9.88
